Scroll down
FLIGHT INFORMATION
Southern Air

SOO98

At Arrival Gate

LIMC
 RKSI
DATE: 2022-06-26
GATE:  -
GATE DEPARTURE: 22:35
TAKEOFF: 22:43
DATE: 2022-06-27
GATE:  -
LANDING: 09:27
GATE ARRIVAL: 09:32
FLIGHT DATA
Crew: 
Speed: 
509 kts
Altitude: 
37,151 ft
Stage Length: 
4,792.8 nm
Block Time: 
10.9 hrs
Flight Time: 
10.7 hrs
Fuel Used: 
187,631 lb
Cleared Route: LIMC MC604 MC608 MC603 SRN TZO VAKON OTKEK CHI AGOMO LABIN DEPET NAVSU BATRU ETIDA ADVER PENEV LETVA ADORU ENESU CRL YAA EKDAM PIMAV TOKER YAMAN UMRUN PETAR BAG ELDEN SIV OTSOV UTURI EZN INTAB ORHAN ARKIN DAMAT ERZ ALVAR YAVUZ BIRZU ELTOX INDUR REBGI PEMAN EDATA LIMTI BEKIR LEYLA OKTAT LEKBA ABTEK GASBI NEPIL BANRA BODSI MASAV DIVNO ABDUN RITET ARKAM TIROK ABURA DZG AMASO AGAKO MADEV AGARO GOMAL BURID GILAK SARIN TCH OSUPO SALMO OMKEN IKARA UGPEL VARMI FKG ADPET ESGIV DAKPA RIMDU BATUS LIKMI GOVSA JNQ GOBIN ATBUG DKO EGILO DUDIL MOSPA TOREL BAXOD UBSEV URDOG UXODI LUGVU UPSUR BIKUT GUVBA HUR SOTMU LADIX CG MUGLO OTBUL VAPGU MUDOT ORAVA UNSEK ALARA MAKNO NUNDU DOBGA POVAG SANKO OBDIS DONVO AGAVO RILRO GONAV BODOL REBIT ELGUK PH036 PH037 POMIM DH030 DH029 DH028 DH021 DH022 DH024 DH027 DH023 DH020 DH017 MUNAN RW15L
TRACK DATA
50,000 ft 1,000 kts
AIRCRAFT INFO AND CUMULATIVE STATS
Aircraft Type: 
B77LF
Registration: 
SELCAL: 
PSBM
MSN/LN: 
37989 / 1011
Operator: 
Total Flights: 
9
Total Block Time: 
44.4 hrs
Total Flight Time: 
41.9 hrs
Total Fuel Used: 
715,128 lb
DATALINK LOG | Newest first | Current as of: 2022-08-16 07:27:29
LABEL SEQUENCE CONTENT Dn/Up
QD292909:32 21.3▼ Dn
QC242409:27▼ Dn
2U2832RKSI 262300Z 16008KT 9999 -RA BKN020 BKN100 26/24 Q1008 NOSIG▲ Up
2S2832RKSI▼ Dn
2U0113RKSI 262130Z 15005KT 9999 BKN020 OVC100 24/23 Q1009 NOSIG▲ Up
2U0112LIMC 262150Z 36007KT CAVOK 23/19 Q1015 NOSIG▲ Up
2S0112LIMC RKSI▼ Dn
UM205920CLEARED TO FL 371▲ Up
DM65910REQUEST FL 371 DUE TO A/C PERF▼ Dn
UM200715CLEARED TO FL 330▲ Up
DM60705REQUEST FL 330 DUE TO A/C PERF▼ Dn
QB404722:43▼ Dn
QA324122:35 208.9▼ Dn
2U2233RKJK 261256Z 19008KT 10SM FEW120 SCT170 28/23 A2984 RMK AO2A SLP109 T02780227 $▲ Up
2U2233RKSI 261300Z 18016KT 9999 BKN017 OVC025 26/23 Q1010 NOSIG▲ Up
2S2232LIMC RKSI RKJK▼ Dn
A32231CLEARED TO RKSI VIA VAK9Q VAKON Q702 CHI L614 LABIN DCT DEPET DCT NAVSU DCT BATRU DCT ETIDA M19 ADORU UL614 BAG UL333 SIV UL615 ERZ UN161 INDUR N161 SARIN A368 FKG W188 GOVSA W66 DKO W69 HUR B339 LADIX W34 VAPGU W100 ORAVA W201 UNSEK A326 DONVO G597 AGAVO Y644 REBIT. SQUAWK 2412.▲ Up
B32231LIMC RKSI PAC98 N777SA ▼ Dn
Q02029[LINK ACK]▲ Up
Q02029[LINK TEST]▼ Dn


AIRCRAFT HISTORY
FLIGHT DATE FLIGHT NO. ORIGIN DESTINATION CLEARED ROUTE BLOCK TIME FLIGHT TIME FUEL USED PILOT
2022-06-26SOO98LIMC RKSI LIMC MC604 MC608 MC603 SRN TZO VAKON OTKEK CHI AGOMO LABIN DEPET NAVSU BATRU ETIDA ADVER PENEV LETVA ADORU ENESU CRL YAA EKDAM PIMAV TOKER YAMAN UMRUN PETAR BAG ELDEN SIV OTSOV UTURI EZN INTAB ORHAN ARKIN DAMAT ERZ ALVAR YAVUZ BIRZU ELTOX INDUR REBGI PEMAN EDATA LIMTI BEKIR LEYLA OKTAT LEKBA ABTEK GASBI NEPIL BANRA BODSI MASAV DIVNO ABDUN RITET ARKAM TIROK ABURA DZG AMASO AGAKO MADEV AGARO GOMAL BURID GILAK SARIN TCH OSUPO SALMO OMKEN IKARA UGPEL VARMI FKG ADPET ESGIV DAKPA RIMDU BATUS LIKMI GOVSA JNQ GOBIN ATBUG DKO EGILO DUDIL MOSPA TOREL BAXOD UBSEV URDOG UXODI LUGVU UPSUR BIKUT GUVBA HUR SOTMU LADIX CG MUGLO OTBUL VAPGU MUDOT ORAVA UNSEK ALARA MAKNO NUNDU DOBGA POVAG SANKO OBDIS DONVO AGAVO RILRO GONAV BODOL REBIT ELGUK PH036 PH037 POMIM DH030 DH029 DH028 DH021 DH022 DH024 DH027 DH023 DH020 DH017 MUNAN RW15L10.9 hrs10.7 hrs187,631 lbAllan Burek
2022-06-26SOO98EDDP LIMC EDDP GOLAT ALOSO TABAT RONIG NIKUS AKOSI RUDNO RDG DOSEL TULSI BERAS MIMVI LIZUM OLPIX EKPEB NAXAV RENTA ATPED LUSIL EVRIP LIMC1.5 hrs1.3 hrs21,660 lbAllan Burek
2022-06-22SOO423KORD EDDP KORD DUFEE ELX CRL CFHFC CFJGT COHOW DKK SYR CABCI MIILS TUDEP 5250N 5440N 5630N 5720N SUNOT KESIX AMLAD TLA NATEB LONAM NORTA ADMOS KENIG KOJEC EDDP8.6 hrs8.4 hrs132,263 lbAllan Burek
2021-01-31SOO9777KMSP KORD KMSP RST ZZIPR KORD1.2 hrs0.9 hrs14,048 lbAllan Burek
2021-01-23SOO519KMCI KMSP KMCI MCI JDOGG TONCE ROKKK FUZEE RRAZZ KBEEE DEMLL NITZR WRSAW DAHRL GDNEE ELLKO SAVVG GREAK DOLEE ZESTY RW12R1.7 hrs1.3 hrs23,009 lbChemtrails
2021-01-09SOO109KOAK KMCI KOAK SYRAH JSICA MLF HVE BDROC HBU EMP KMCI3.1 hrs2.8 hrs45,304 lbAaron Buchanan
2021-01-01SOO519SPJC KOAK SPJC JC921 JC923 DIMAP BURVO JC917 ISREN REBAN MULON AMERO SUDKO MIGIK ESDUX PUPES ARTOM VODIR POGAM NOTOS YEDRA AMUSI ACA ALANS AGLON NUXCO OLULA PEKSI ALIPO UPN ONGEL EBDEG GDL TEILA SEDEM AMAVO RADAP KEDMA BRISA USDAD MZT GAMOS MELBO DANOP CUL BOKTA LERIV KIPAX KEBEX EMANI CEN USBEN SEBEK MIURA HMO OMTIB LIDUK PPE AMUDI MXL PXN KARNN BORED BUSHY SUNOL NIXDE RW28R9 hrs8.7 hrs157,052 lbChemtrails
2020-12-11SOO1211SVMI SPJC 3.9 hrs3.6 hrs60,789 lbAaron Buchanan
2020-12-06SOO833KCVG SVMI 4.4 hrs4.1 hrs73,371 lbAaron Buchanan